createdAt,value
2023-08-12T00:00:55.197Z,22.01
2023-08-12T00:03:22.210Z,22.02
2023-08-12T00:05:48.828Z,22.01
2023-08-12T00:08:15.317Z,22.01
2023-08-12T00:10:41.939Z,21.99
2023-08-12T00:13:08.424Z,22.00
2023-08-12T00:15:35.456Z,21.99
2023-08-12T00:18:02.257Z,21.98
2023-08-12T00:20:29.028Z,21.97
2023-08-12T00:22:55.502Z,21.97
2023-08-12T00:25:22.006Z,21.97
2023-08-12T00:27:48.525Z,21.96
2023-08-12T00:30:15.395Z,21.96
2023-08-12T00:32:42.166Z,21.96
2023-08-12T00:35:09.059Z,21.95
2023-08-12T00:37:35.633Z,21.95
2023-08-12T00:40:02.186Z,21.95
2023-08-12T00:42:28.762Z,21.93
2023-08-12T00:44:55.264Z,21.92
2023-08-12T00:47:23.401Z,21.94
2023-08-12T00:49:50.911Z,21.93
2023-08-12T00:52:19.066Z,21.91
2023-08-12T00:54:45.797Z,21.91
2023-08-12T00:57:12.648Z,21.91
2023-08-12T00:59:42.922Z,21.91
2023-08-12T01:02:09.761Z,21.90
2023-08-12T01:04:36.565Z,21.90
2023-08-12T01:07:04.646Z,21.89
2023-08-12T01:09:31.554Z,21.90
2023-08-12T01:12:37.567Z,21.91
2023-08-12T01:15:15.567Z,21.89
2023-08-12T01:17:44.145Z,21.88
2023-08-12T01:20:15.723Z,21.87
2023-08-12T01:22:45.055Z,21.87
2023-08-12T01:25:11.599Z,21.87
2023-08-12T01:27:39.081Z,21.86
2023-08-12T01:30:07.214Z,21.87
2023-08-12T01:32:42.585Z,21.87
2023-08-12T01:35:42.516Z,21.87
2023-08-12T01:38:10.594Z,21.86
2023-08-12T01:40:39.232Z,21.86
2023-08-12T01:43:06.086Z,21.86
2023-08-12T01:45:33.313Z,21.85
2023-08-12T01:47:59.893Z,21.85
2023-08-12T01:50:26.929Z,21.84
2023-08-12T01:52:54.317Z,21.84
2023-08-12T01:55:20.912Z,21.84
2023-08-12T01:57:47.428Z,21.85
2023-08-12T02:00:14.134Z,21.83
2023-08-12T02:02:40.827Z,21.83
2023-08-12T02:05:07.683Z,21.83
2023-08-12T02:07:34.178Z,21.83
2023-08-12T02:10:00.767Z,21.83
2023-08-12T02:12:27.277Z,21.81
2023-08-12T02:14:56.707Z,21.82
2023-08-12T02:17:23.568Z,21.80
2023-08-12T02:19:50.026Z,21.81
2023-08-12T02:22:16.579Z,21.81
2023-08-12T02:24:43.214Z,21.82
2023-08-12T02:27:10.028Z,21.81
2023-08-12T02:29:36.763Z,21.80
2023-08-12T02:32:03.381Z,21.80
2023-08-12T02:34:29.916Z,21.80
2023-08-12T02:36:56.387Z,21.80
2023-08-12T02:39:23.417Z,21.80
2023-08-12T02:41:50.072Z,21.80
2023-08-12T02:44:16.679Z,21.79
2023-08-12T02:46:43.260Z,21.80
2023-08-12T02:49:09.768Z,21.80
2023-08-12T02:51:36.284Z,21.79
2023-08-12T02:54:02.789Z,21.77
2023-08-12T02:56:29.310Z,21.77
2023-08-12T02:58:55.935Z,21.77
2023-08-12T03:01:25.463Z,21.77
2023-08-12T03:03:52.007Z,21.76
2023-08-12T03:06:18.804Z,21.76
2023-08-12T03:08:45.324Z,21.77
2023-08-12T03:11:11.862Z,21.76
2023-08-12T03:13:38.407Z,21.76
2023-08-12T03:16:05.138Z,21.75
2023-08-12T03:18:31.707Z,21.75
2023-08-12T03:20:58.265Z,21.75
2023-08-12T03:23:25.427Z,21.75
2023-08-12T03:25:51.934Z,21.75
2023-08-12T03:28:18.476Z,21.76
2023-08-12T03:30:52.542Z,21.75
2023-08-12T03:33:19.767Z,21.76
2023-08-12T03:35:47.591Z,21.74
2023-08-12T03:38:14.524Z,21.75
2023-08-12T03:40:42.476Z,21.74
2023-08-12T03:43:09.059Z,21.73
2023-08-12T03:45:43.149Z,21.74
2023-08-12T03:48:09.999Z,21.73
2023-08-12T03:50:38.116Z,21.73
2023-08-12T03:53:05.365Z,21.74
2023-08-12T03:55:33.268Z,21.73
2023-08-12T03:58:03.384Z,21.72
2023-08-12T04:00:29.980Z,21.72
2023-08-12T04:02:56.743Z,21.72
2023-08-12T04:05:23.586Z,21.72
2023-08-12T04:07:50.137Z,21.72
2023-08-12T04:10:16.815Z,21.73
2023-08-12T04:12:44.716Z,21.75
2023-08-12T04:15:11.695Z,21.74
2023-08-12T04:17:38.543Z,21.75
2023-08-12T04:20:07.529Z,21.74
2023-08-12T04:22:34.127Z,21.73
2023-08-12T04:25:00.647Z,21.74
2023-08-12T04:27:27.139Z,21.74
2023-08-12T04:29:53.610Z,21.73
2023-08-12T04:32:20.066Z,21.75
2023-08-12T04:34:47.368Z,21.73
2023-08-12T04:37:14.116Z,21.74
2023-08-12T04:39:41.426Z,21.72
2023-08-12T04:42:07.922Z,21.73
2023-08-12T04:44:34.515Z,21.73
2023-08-12T04:47:00.981Z,21.73
2023-08-12T04:49:28.262Z,21.73
2023-08-12T04:51:55.039Z,21.73
2023-08-12T04:54:21.767Z,21.73
2023-08-12T04:56:48.282Z,21.73
2023-08-12T04:59:14.757Z,21.73
2023-08-12T05:01:54.449Z,21.72
2023-08-12T05:04:27.882Z,21.72
2023-08-12T05:06:56.601Z,21.71
2023-08-12T05:09:23.116Z,21.71
2023-08-12T05:11:49.606Z,21.71
2023-08-12T05:14:16.104Z,21.72
2023-08-12T05:16:42.688Z,21.71
2023-08-12T05:19:09.261Z,21.72
2023-08-12T05:21:35.916Z,21.72
2023-08-12T05:24:02.499Z,21.72
2023-08-12T05:26:29.290Z,21.71
2023-08-12T05:28:56.693Z,21.70
2023-08-12T05:31:23.313Z,21.70
2023-08-12T05:33:49.993Z,21.69
2023-08-12T05:36:16.567Z,21.71
2023-08-12T05:38:43.152Z,21.69
2023-08-12T05:41:09.761Z,21.70
2023-08-12T05:43:36.305Z,21.72
2023-08-12T05:46:02.891Z,21.70
2023-08-12T05:48:29.800Z,21.69
2023-08-12T05:50:56.637Z,21.70
2023-08-12T05:53:24.079Z,21.70
2023-08-12T05:55:50.658Z,21.70
2023-08-12T05:58:17.355Z,21.69
2023-08-12T06:00:46.575Z,21.71
2023-08-12T06:03:13.819Z,21.70
2023-08-12T06:05:42.425Z,21.69
2023-08-12T06:08:09.055Z,21.70
2023-08-12T06:10:37.643Z,21.68
2023-08-12T06:13:06.245Z,21.70
2023-08-12T06:15:34.175Z,21.70
2023-08-12T06:18:02.005Z,21.70
2023-08-12T06:20:28.587Z,21.71
2023-08-12T06:22:55.617Z,21.70
2023-08-12T06:25:22.203Z,21.70
2023-08-12T06:27:48.772Z,21.70
2023-08-12T06:30:15.393Z,21.69
2023-08-12T06:32:42.116Z,21.71
2023-08-12T06:35:09.266Z,21.70
2023-08-12T06:37:35.791Z,21.71
2023-08-12T06:40:02.308Z,21.72
2023-08-12T06:42:28.827Z,21.71
2023-08-12T06:44:58.337Z,21.73
2023-08-12T06:47:25.878Z,21.73
2023-08-12T06:49:52.430Z,21.73
2023-08-12T06:52:19.063Z,21.74
2023-08-12T06:54:45.598Z,21.73
2023-08-12T06:57:12.761Z,21.74
2023-08-12T06:59:39.730Z,21.76
2023-08-12T07:02:07.908Z,21.77
2023-08-12T07:04:34.406Z,21.78
2023-08-12T07:07:01.054Z,21.80
2023-08-12T07:09:27.618Z,21.81
2023-08-12T07:11:54.082Z,21.82
2023-08-12T07:14:20.653Z,21.85
2023-08-12T07:16:47.165Z,21.86
2023-08-12T07:19:16.596Z,21.86
2023-08-12T07:21:43.603Z,21.88
2023-08-12T07:24:10.177Z,21.89
2023-08-12T07:26:36.696Z,21.91
2023-08-12T07:29:03.253Z,21.92
2023-08-12T07:31:30.043Z,21.91
2023-08-12T07:33:57.797Z,21.92
2023-08-12T07:36:24.291Z,21.93
2023-08-12T07:38:50.820Z,21.94
2023-08-12T07:41:17.297Z,21.92
2023-08-12T07:43:43.947Z,21.91
2023-08-12T07:46:10.714Z,21.92
2023-08-12T07:48:38.428Z,21.91
2023-08-12T07:51:05.106Z,21.90
2023-08-12T07:53:31.605Z,21.92
2023-08-12T07:55:58.072Z,21.91
2023-08-12T07:58:24.585Z,21.93
2023-08-12T08:00:55.090Z,21.93
2023-08-12T08:03:21.895Z,21.93
2023-08-12T08:05:49.126Z,21.93
2023-08-12T08:08:15.720Z,21.92
2023-08-12T08:10:42.303Z,21.91
2023-08-12T08:13:08.885Z,21.92
2023-08-12T08:15:35.410Z,21.92
2023-08-12T08:18:03.506Z,21.91
2023-08-12T08:20:30.024Z,21.91
2023-08-12T08:22:56.887Z,21.91
2023-08-12T08:25:23.713Z,21.94
2023-08-12T08:27:50.506Z,21.92
2023-08-12T08:30:17.116Z,21.92
2023-08-12T08:32:43.795Z,21.92
2023-08-12T08:35:10.359Z,21.91
2023-08-12T08:37:36.913Z,21.91
2023-08-12T08:40:04.349Z,21.90
2023-08-12T08:42:32.051Z,21.90
2023-08-12T08:45:02.892Z,21.91
2023-08-12T08:47:29.642Z,21.92
2023-08-12T08:49:59.797Z,21.92
2023-08-12T08:52:27.249Z,21.94
2023-08-12T08:54:54.359Z,21.94
2023-08-12T08:57:38.931Z,21.92
2023-08-12T09:02:44.163Z,21.88
2023-08-12T09:05:12.381Z,21.87
2023-08-12T09:07:40.199Z,21.90
2023-08-12T09:10:08.642Z,21.92
2023-08-12T09:12:35.502Z,21.93
2023-08-12T09:15:02.034Z,21.95
2023-08-12T09:17:28.889Z,21.96
2023-08-12T09:19:55.938Z,21.95
2023-08-12T09:22:25.462Z,21.96
2023-08-12T09:24:59.108Z,21.98
2023-08-12T09:27:26.613Z,21.99
2023-08-12T09:29:58.764Z,22.01
2023-08-12T09:32:25.822Z,22.00
2023-08-12T09:34:55.901Z,22.01
2023-08-12T09:37:24.851Z,22.02
2023-08-12T09:39:52.886Z,22.06
2023-08-12T09:42:19.892Z,22.09
2023-08-12T09:44:47.374Z,22.14
2023-08-12T09:47:14.233Z,22.16
2023-08-12T09:49:41.280Z,22.17
2023-08-12T09:52:09.179Z,22.20
2023-08-12T09:54:36.388Z,22.24
2023-08-12T09:57:06.782Z,22.24
2023-08-12T09:59:36.241Z,22.23
2023-08-12T10:02:08.508Z,22.20
2023-08-12T10:04:42.583Z,22.20
2023-08-12T10:07:10.927Z,22.22
2023-08-12T10:09:38.780Z,22.28
2023-08-12T10:12:07.906Z,22.35
2023-08-12T10:14:40.364Z,22.42
2023-08-12T10:17:07.588Z,22.58
2023-08-12T10:19:35.732Z,22.72
2023-08-12T10:22:04.537Z,22.83
2023-08-12T10:24:32.387Z,22.92
2023-08-12T10:27:02.489Z,22.96
2023-08-12T10:29:31.928Z,22.97
2023-08-12T10:32:02.171Z,23.04
2023-08-12T10:34:29.614Z,23.06
2023-08-12T10:37:03.003Z,23.16
2023-08-12T10:39:33.277Z,23.29
2023-08-12T10:42:00.309Z,23.37
2023-08-12T10:44:39.271Z,23.39
2023-08-12T10:47:12.952Z,23.37
2023-08-12T10:49:43.698Z,23.39
2023-08-12T10:52:27.020Z,23.42
2023-08-12T10:54:53.778Z,23.46
2023-08-12T10:57:36.476Z,23.52
2023-08-12T11:00:04.563Z,23.67
2023-08-12T11:02:34.956Z,23.80
2023-08-12T11:05:08.162Z,23.83
2023-08-12T11:07:39.946Z,23.96
2023-08-12T11:10:28.085Z,24.18
2023-08-12T11:12:57.427Z,24.42
2023-08-12T11:15:36.251Z,24.79
2023-08-12T11:18:07.164Z,25.45
2023-08-12T11:20:34.351Z,26.35
2023-08-12T11:23:02.120Z,26.89
2023-08-12T11:25:35.669Z,27.54
2023-08-12T11:28:02.578Z,28.11
2023-08-12T11:30:32.278Z,28.82
2023-08-12T11:33:01.162Z,29.05
2023-08-12T11:35:28.510Z,29.55
2023-08-12T11:37:57.308Z,29.96
2023-08-12T11:40:25.310Z,30.23
2023-08-12T11:42:52.795Z,30.57
2023-08-12T11:45:24.930Z,30.66
2023-08-12T11:47:55.562Z,30.04
2023-08-12T11:50:24.450Z,28.85
2023-08-12T11:52:52.051Z,29.61
2023-08-12T11:55:19.399Z,29.06
2023-08-12T11:57:46.568Z,28.20
2023-08-12T12:00:19.864Z,29.10
2023-08-12T12:02:51.136Z,30.07
2023-08-12T12:05:20.935Z,30.71
2023-08-12T12:07:50.522Z,31.11
2023-08-12T12:10:35.838Z,31.56
2023-08-12T12:13:04.628Z,30.89
2023-08-12T12:15:32.395Z,30.65
2023-08-12T12:18:00.020Z,31.15
2023-08-12T12:20:28.637Z,31.03
2023-08-12T12:22:56.097Z,31.47
2023-08-12T12:25:22.807Z,31.78
2023-08-12T12:27:49.435Z,31.99
2023-08-12T12:30:18.560Z,31.44
2023-08-12T12:32:46.325Z,31.81
2023-08-12T12:35:13.328Z,32.19
2023-08-12T12:37:39.884Z,32.54
2023-08-12T12:40:07.083Z,32.80
2023-08-12T12:42:33.719Z,32.84
2023-08-12T12:45:00.552Z,33.03
2023-08-12T12:47:27.164Z,33.10
2023-08-12T12:49:53.717Z,33.22
2023-08-12T12:52:20.206Z,33.25
2023-08-12T12:54:46.717Z,33.25
2023-08-12T12:57:13.212Z,33.34
2023-08-12T12:59:39.753Z,33.35
2023-08-12T13:02:06.335Z,33.30
2023-08-12T13:04:32.950Z,33.07
2023-08-12T13:06:59.620Z,32.76
2023-08-12T13:09:26.151Z,32.27
2023-08-12T13:11:52.670Z,31.34
2023-08-12T13:14:22.226Z,30.36
2023-08-12T13:16:49.145Z,29.60
2023-08-12T13:19:15.846Z,29.13
2023-08-12T13:21:42.401Z,28.66
2023-08-12T13:24:08.908Z,28.25
2023-08-12T13:26:35.533Z,27.92
2023-08-12T13:29:02.107Z,27.68
2023-08-12T13:31:37.578Z,27.49
2023-08-12T13:34:04.376Z,27.26
2023-08-12T13:36:31.775Z,27.06
2023-08-12T13:39:00.125Z,26.86
2023-08-12T13:41:29.721Z,26.65
2023-08-12T13:43:56.380Z,26.53
2023-08-12T13:46:23.019Z,26.42
2023-08-12T13:48:49.699Z,26.36
2023-08-12T13:51:16.179Z,26.24
2023-08-12T13:53:42.654Z,26.09
2023-08-12T13:56:09.431Z,25.99
2023-08-12T13:58:35.948Z,25.83
2023-08-12T14:01:04.747Z,25.75
2023-08-12T14:03:31.792Z,25.65
2023-08-12T14:05:58.916Z,25.54
2023-08-12T14:08:25.661Z,25.48
2023-08-12T14:10:52.342Z,25.41
2023-08-12T14:13:21.192Z,25.32
2023-08-12T14:15:47.669Z,25.21
2023-08-12T14:18:14.231Z,25.13
2023-08-12T14:20:40.908Z,25.08
2023-08-12T14:23:07.582Z,25.03
2023-08-12T14:25:34.090Z,24.95
2023-08-12T14:28:00.918Z,24.90
2023-08-12T14:30:27.676Z,24.87
2023-08-12T14:32:54.681Z,24.76
2023-08-12T14:35:21.637Z,24.73
2023-08-12T14:37:50.560Z,24.67
2023-08-12T14:40:17.240Z,24.60
2023-08-12T14:42:43.844Z,24.53
2023-08-12T14:45:11.328Z,24.46
2023-08-12T14:47:37.978Z,24.41
2023-08-12T14:50:05.383Z,24.41
2023-08-12T14:52:32.034Z,24.36
2023-08-12T14:54:59.001Z,24.28
2023-08-12T14:57:25.749Z,24.24
2023-08-12T14:59:52.503Z,24.20
2023-08-12T15:02:21.871Z,24.11
2023-08-12T15:04:48.461Z,24.08
2023-08-12T15:07:15.698Z,24.02
2023-08-12T15:09:42.761Z,24.02
2023-08-12T15:12:09.431Z,24.00
2023-08-12T15:14:36.011Z,23.94
2023-08-12T15:17:02.579Z,23.89
2023-08-12T15:19:30.257Z,23.87
2023-08-12T15:21:57.204Z,23.86
2023-08-12T15:24:23.733Z,23.86
2023-08-12T15:26:50.466Z,23.82
2023-08-12T15:29:16.990Z,23.79
2023-08-12T15:31:43.640Z,23.80
2023-08-12T15:34:10.281Z,23.79
2023-08-12T15:36:37.469Z,23.82
2023-08-12T15:39:04.056Z,23.83
2023-08-12T15:41:30.670Z,23.81
2023-08-12T15:43:57.182Z,23.82
2023-08-12T15:46:23.751Z,23.85
2023-08-12T15:48:50.405Z,23.82
2023-08-12T15:51:16.935Z,23.80
2023-08-12T15:53:43.425Z,23.76
2023-08-12T15:56:09.974Z,23.73
2023-08-12T15:58:36.834Z,23.69
2023-08-12T16:01:03.333Z,23.68
2023-08-12T16:03:30.709Z,23.65
2023-08-12T16:06:01.757Z,23.62
2023-08-12T16:08:28.790Z,23.60
2023-08-12T16:10:55.709Z,23.59
2023-08-12T16:13:22.437Z,23.56
2023-08-12T16:15:51.804Z,23.54
2023-08-12T16:18:18.426Z,23.53
2023-08-12T16:20:45.070Z,23.52
2023-08-12T16:23:11.835Z,23.51
2023-08-12T16:25:38.381Z,23.50
2023-08-12T16:28:05.291Z,23.51
2023-08-12T16:30:32.929Z,23.54
2023-08-12T16:33:00.264Z,23.55
2023-08-12T16:35:26.935Z,23.53
2023-08-12T16:37:54.284Z,23.54
2023-08-12T16:40:21.010Z,23.53
2023-08-12T16:42:47.686Z,23.53
2023-08-12T16:45:14.389Z,23.53
2023-08-12T16:47:41.211Z,23.53
2023-08-12T16:50:08.266Z,23.53
2023-08-12T16:52:34.881Z,23.51
2023-08-12T16:55:01.710Z,23.52
2023-08-12T16:57:28.656Z,23.52
2023-08-12T16:59:55.204Z,23.50
2023-08-12T17:02:21.944Z,23.49
2023-08-12T17:04:48.526Z,23.51
2023-08-12T17:07:15.155Z,23.49
2023-08-12T17:09:41.727Z,23.51
2023-08-12T17:12:08.520Z,23.51
2023-08-12T17:14:35.094Z,23.51
2023-08-12T17:17:02.530Z,23.52
2023-08-12T17:19:31.890Z,23.51
2023-08-12T17:21:58.663Z,23.50
2023-08-12T17:24:25.248Z,23.48
2023-08-12T17:26:51.861Z,23.48
2023-08-12T17:29:19.349Z,23.46
2023-08-12T17:31:45.839Z,23.46
2023-08-12T17:34:12.416Z,23.45
2023-08-12T17:36:39.028Z,23.45
2023-08-12T17:39:05.867Z,23.45
2023-08-12T17:41:32.438Z,23.45
2023-08-12T17:44:02.194Z,23.44
2023-08-12T17:46:29.840Z,23.44
2023-08-12T17:48:56.497Z,23.44
2023-08-12T17:51:23.239Z,23.42
2023-08-12T17:53:49.903Z,23.41
2023-08-12T17:56:17.428Z,23.42
2023-08-12T17:58:45.354Z,23.42
2023-08-12T18:01:13.124Z,23.42
2023-08-12T18:03:40.240Z,23.40
2023-08-12T18:06:06.954Z,23.40
2023-08-12T18:08:34.580Z,23.39
2023-08-12T18:11:04.733Z,23.37
2023-08-12T18:13:34.731Z,23.37
2023-08-12T18:16:01.440Z,23.37
2023-08-12T18:18:28.547Z,23.36
2023-08-12T18:20:56.952Z,23.36
2023-08-12T18:23:23.657Z,23.34
2023-08-12T18:25:50.286Z,23.33
2023-08-12T18:28:16.919Z,23.32
2023-08-12T18:30:43.583Z,23.31
2023-08-12T18:33:11.282Z,23.32
2023-08-12T18:35:37.844Z,23.31
2023-08-12T18:38:04.572Z,23.30
2023-08-12T18:40:33.601Z,23.28
2023-08-12T18:43:01.121Z,23.26
2023-08-12T18:45:30.006Z,23.28
2023-08-12T18:47:56.534Z,23.26
2023-08-12T18:50:24.090Z,23.25
2023-08-12T18:52:50.641Z,23.24
2023-08-12T18:55:17.496Z,23.23
2023-08-12T18:57:44.058Z,23.23
2023-08-12T19:00:14.613Z,23.22
2023-08-12T19:02:42.012Z,23.20
2023-08-12T19:05:09.644Z,23.21
2023-08-12T19:07:36.144Z,23.20
2023-08-12T19:10:06.893Z,23.21
2023-08-12T19:12:33.696Z,23.21
2023-08-12T19:15:00.549Z,23.21
2023-08-12T19:17:27.205Z,23.20
2023-08-12T19:19:53.691Z,23.21
2023-08-12T19:22:20.429Z,23.22
2023-08-12T19:24:46.973Z,23.22
2023-08-12T19:27:13.497Z,23.22
2023-08-12T19:29:40.097Z,23.22
2023-08-12T19:32:06.648Z,23.22
2023-08-12T19:34:34.508Z,23.22
2023-08-12T19:37:01.398Z,23.22
2023-08-12T19:39:28.072Z,23.22
2023-08-12T19:41:54.740Z,23.21
2023-08-12T19:44:24.629Z,23.20
2023-08-12T19:46:51.419Z,23.21
2023-08-12T19:49:17.941Z,23.21
2023-08-12T19:51:44.440Z,23.21
2023-08-12T19:54:11.004Z,23.21
2023-08-12T19:56:37.508Z,23.18
2023-08-12T19:59:04.325Z,23.19
2023-08-12T20:01:30.892Z,23.19
2023-08-12T20:03:58.170Z,23.19
2023-08-12T20:06:24.756Z,23.17
2023-08-12T20:08:51.552Z,23.16
2023-08-12T20:11:18.022Z,23.16
2023-08-12T20:13:45.045Z,23.15
2023-08-12T20:16:12.169Z,23.13
2023-08-12T20:18:38.780Z,23.12
2023-08-12T20:21:05.605Z,23.11
2023-08-12T20:23:32.226Z,23.10
2023-08-12T20:25:59.482Z,23.09
2023-08-12T20:28:26.001Z,23.08
2023-08-12T20:30:52.530Z,23.09
2023-08-12T20:33:24.675Z,23.07
2023-08-12T20:35:51.372Z,23.07
2023-08-12T20:38:19.486Z,23.06
2023-08-12T20:40:46.848Z,23.05
2023-08-12T20:43:13.354Z,23.04
2023-08-12T20:45:40.015Z,23.04
2023-08-12T20:48:06.991Z,23.05
2023-08-12T20:50:33.581Z,23.03
2023-08-12T20:53:06.157Z,23.03
2023-08-12T20:55:32.732Z,23.03
2023-08-12T20:57:59.429Z,23.02
2023-08-12T21:00:26.012Z,23.02
2023-08-12T21:02:52.561Z,23.01
2023-08-12T21:05:19.516Z,23.00
2023-08-12T21:07:46.203Z,23.00
2023-08-12T21:10:13.321Z,23.00
2023-08-12T21:12:40.026Z,22.99
2023-08-12T21:15:07.193Z,22.98
2023-08-12T21:17:33.809Z,22.97
2023-08-12T21:20:00.442Z,22.97
2023-08-12T21:22:26.983Z,22.97
2023-08-12T21:24:53.562Z,22.96
2023-08-12T21:27:20.297Z,22.95
2023-08-12T21:29:46.859Z,22.95
2023-08-12T21:32:13.788Z,22.94
2023-08-12T21:34:43.353Z,22.95
2023-08-12T21:37:09.945Z,22.94
2023-08-12T21:39:36.453Z,22.95
2023-08-12T21:42:03.231Z,22.94
2023-08-12T21:44:29.946Z,22.94
2023-08-12T21:46:56.495Z,22.93
2023-08-12T21:49:23.681Z,22.93
2023-08-12T21:51:50.272Z,22.93
2023-08-12T21:54:17.848Z,22.92
2023-08-12T21:56:44.403Z,22.91
2023-08-12T21:59:10.935Z,22.90
2023-08-12T22:01:37.403Z,22.89
2023-08-12T22:04:04.285Z,22.88
2023-08-12T22:06:30.960Z,22.87
2023-08-12T22:09:00.295Z,22.86
2023-08-12T22:11:29.301Z,22.82
2023-08-12T22:13:56.032Z,22.82
2023-08-12T22:16:22.627Z,22.82
2023-08-12T22:18:49.183Z,22.85
2023-08-12T22:21:15.704Z,22.84
2023-08-12T22:23:42.240Z,22.85
2023-08-12T22:26:08.830Z,22.86
2023-08-12T22:28:35.347Z,22.86
2023-08-12T22:31:01.996Z,22.86
2023-08-12T22:33:29.407Z,22.87
2023-08-12T22:35:55.937Z,22.85
2023-08-12T22:38:22.524Z,22.84
2023-08-12T22:40:49.115Z,22.83
2023-08-12T22:43:15.675Z,22.81
2023-08-12T22:45:44.416Z,22.79
2023-08-12T22:48:10.958Z,22.75
2023-08-12T22:50:38.154Z,22.74
2023-08-12T22:53:04.977Z,22.72
2023-08-12T22:55:31.539Z,22.70
2023-08-12T22:57:58.660Z,22.68
2023-08-12T23:00:25.360Z,22.67
2023-08-12T23:02:52.176Z,22.64
2023-08-12T23:05:19.036Z,22.62
2023-08-12T23:07:45.571Z,22.61
2023-08-12T23:10:12.257Z,22.60
2023-08-12T23:12:38.839Z,22.57
2023-08-12T23:15:05.969Z,22.56
2023-08-12T23:17:32.596Z,22.54
2023-08-12T23:19:59.504Z,22.52
2023-08-12T23:22:26.088Z,22.51
2023-08-12T23:24:52.593Z,22.50
2023-08-12T23:27:19.199Z,22.49
2023-08-12T23:29:45.686Z,22.46
2023-08-12T23:32:12.593Z,22.47
2023-08-12T23:34:39.352Z,22.46
2023-08-12T23:37:05.956Z,22.43
2023-08-12T23:39:32.547Z,22.42
2023-08-12T23:41:59.545Z,22.40
2023-08-12T23:44:26.080Z,22.39
2023-08-12T23:46:52.677Z,22.38
2023-08-12T23:49:19.800Z,22.38
2023-08-12T23:51:46.444Z,22.35
2023-08-12T23:54:13.116Z,22.35
2023-08-12T23:56:39.659Z,22.34
2023-08-12T23:59:06.202Z,22.33
